sensor_id;sensor_type;location;lat;lon;timestamp;P1;durP1;ratioP1;P2;durP2;ratioP2
18021;SDS011;9136;48.822;7.966;2023-02-20T00:00:46;18.67;;;17.87;;
18021;SDS011;9136;48.822;7.966;2023-02-20T00:03:34;18.20;;;17.40;;
18021;SDS011;9136;48.822;7.966;2023-02-20T00:06:22;17.20;;;16.43;;
18021;SDS011;9136;48.822;7.966;2023-02-20T00:09:10;16.37;;;15.67;;
18021;SDS011;9136;48.822;7.966;2023-02-20T00:11:59;18.37;;;17.43;;
18021;SDS011;9136;48.822;7.966;2023-02-20T00:14:47;16.63;;;15.93;;
18021;SDS011;9136;48.822;7.966;2023-02-20T00:17:35;18.80;;;18.00;;
18021;SDS011;9136;48.822;7.966;2023-02-20T00:20:23;18.53;;;17.67;;
18021;SDS011;9136;48.822;7.966;2023-02-20T00:23:12;17.70;;;16.83;;
18021;SDS011;9136;48.822;7.966;2023-02-20T00:26:00;17.47;;;16.67;;
18021;SDS011;9136;48.822;7.966;2023-02-20T00:28:50;14.87;;;14.27;;
18021;SDS011;9136;48.822;7.966;2023-02-20T00:31:38;18.43;;;17.63;;
18021;SDS011;9136;48.822;7.966;2023-02-20T00:34:26;16.87;;;16.17;;
18021;SDS011;9136;48.822;7.966;2023-02-20T00:37:15;18.07;;;17.07;;
18021;SDS011;9136;48.822;7.966;2023-02-20T00:40:03;17.60;;;16.80;;
18021;SDS011;9136;48.822;7.966;2023-02-20T00:42:52;18.33;;;17.53;;
18021;SDS011;9136;48.822;7.966;2023-02-20T00:45:42;18.77;;;17.90;;
18021;SDS011;9136;48.822;7.966;2023-02-20T00:48:29;17.67;;;16.87;;
18021;SDS011;9136;48.822;7.966;2023-02-20T00:51:17;16.77;;;16.07;;
18021;SDS011;9136;48.822;7.966;2023-02-20T00:54:05;19.00;;;18.20;;
18021;SDS011;9136;48.822;7.966;2023-02-20T00:56:53;16.67;;;15.97;;
18021;SDS011;9136;48.822;7.966;2023-02-20T00:59:42;18.60;;;17.80;;
18021;SDS011;9136;48.822;7.966;2023-02-20T01:02:31;18.37;;;17.57;;
18021;SDS011;9136;48.822;7.966;2023-02-20T01:05:20;17.30;;;16.47;;
18021;SDS011;9136;48.822;7.966;2023-02-20T01:08:08;17.77;;;16.63;;
18021;SDS011;9136;48.822;7.966;2023-02-20T01:10:56;18.00;;;17.20;;
18021;SDS011;9136;48.822;7.966;2023-02-20T01:13:44;17.40;;;16.60;;
18021;SDS011;9136;48.822;7.966;2023-02-20T01:16:32;18.60;;;17.70;;
18021;SDS011;9136;48.822;7.966;2023-02-20T01:19:21;17.33;;;16.57;;
18021;SDS011;9136;48.822;7.966;2023-02-20T01:22:10;20.20;;;19.30;;
18021;SDS011;9136;48.822;7.966;2023-02-20T01:24:58;18.25;;;17.45;;
18021;SDS011;9136;48.822;7.966;2023-02-20T01:27:46;17.57;;;16.80;;
18021;SDS011;9136;48.822;7.966;2023-02-20T01:30:34;18.77;;;17.97;;
18021;SDS011;9136;48.822;7.966;2023-02-20T01:33:23;16.43;;;15.73;;
18021;SDS011;9136;48.822;7.966;2023-02-20T01:36:13;17.30;;;16.57;;
18021;SDS011;9136;48.822;7.966;2023-02-20T01:39:01;17.43;;;16.63;;
18021;SDS011;9136;48.822;7.966;2023-02-20T01:41:49;20.30;;;19.10;;
18021;SDS011;9136;48.822;7.966;2023-02-20T01:44:40;20.47;;;19.57;;
18021;SDS011;9136;48.822;7.966;2023-02-20T01:47:28;20.43;;;19.53;;
18021;SDS011;9136;48.822;7.966;2023-02-20T01:50:16;18.33;;;17.47;;
18021;SDS011;9136;48.822;7.966;2023-02-20T01:53:09;19.40;;;18.60;;
18021;SDS011;9136;48.822;7.966;2023-02-20T01:56:01;20.33;;;19.33;;
18021;SDS011;9136;48.822;7.966;2023-02-20T01:58:52;16.70;;;16.00;;
18021;SDS011;9136;48.822;7.966;2023-02-20T02:01:40;21.63;;;20.63;;
18021;SDS011;9136;48.822;7.966;2023-02-20T02:04:28;17.27;;;16.57;;
18021;SDS011;9136;48.822;7.966;2023-02-20T02:07:16;16.80;;;16.10;;
18021;SDS011;9136;48.822;7.966;2023-02-20T02:10:07;16.80;;;16.10;;
18021;SDS011;9136;48.822;7.966;2023-02-20T02:12:57;18.30;;;17.50;;
18021;SDS011;9136;48.822;7.966;2023-02-20T02:15:45;20.70;;;19.80;;
18021;SDS011;9136;48.822;7.966;2023-02-20T02:18:39;19.30;;;18.50;;
18021;SDS011;9136;48.822;7.966;2023-02-20T02:35:30;21.17;;;20.20;;
18021;SDS011;9136;48.822;7.966;2023-02-20T02:38:42;19.93;;;19.03;;
18021;SDS011;9136;48.822;7.966;2023-02-20T02:41:38;17.77;;;16.97;;
18021;SDS011;9136;48.822;7.966;2023-02-20T02:44:33;22.43;;;21.43;;
18021;SDS011;9136;48.822;7.966;2023-02-20T02:47:26;20.83;;;19.93;;
18021;SDS011;9136;48.822;7.966;2023-02-20T02:50:21;21.70;;;20.77;;
18021;SDS011;9136;48.822;7.966;2023-02-20T02:53:13;19.73;;;18.83;;
18021;SDS011;9136;48.822;7.966;2023-02-20T02:56:01;18.40;;;17.60;;
18021;SDS011;9136;48.822;7.966;2023-02-20T02:59:06;17.67;;;16.87;;
18021;SDS011;9136;48.822;7.966;2023-02-20T03:01:58;18.87;;;18.07;;
18021;SDS011;9136;48.822;7.966;2023-02-20T03:04:49;21.03;;;20.13;;
18021;SDS011;9136;48.822;7.966;2023-02-20T03:07:39;20.87;;;19.97;;
18021;SDS011;9136;48.822;7.966;2023-02-20T03:10:31;18.90;;;18.10;;
18021;SDS011;9136;48.822;7.966;2023-02-20T03:13:18;24.10;;;22.33;;
18021;SDS011;9136;48.822;7.966;2023-02-20T03:16:07;18.50;;;17.70;;
18021;SDS011;9136;48.822;7.966;2023-02-20T03:18:56;19.90;;;19.00;;
18021;SDS011;9136;48.822;7.966;2023-02-20T03:21:47;18.57;;;17.77;;
18021;SDS011;9136;48.822;7.966;2023-02-20T03:24:38;17.73;;;16.93;;
18021;SDS011;9136;48.822;7.966;2023-02-20T03:27:43;19.63;;;18.77;;
18021;SDS011;9136;48.822;7.966;2023-02-20T03:30:37;19.10;;;18.20;;
18021;SDS011;9136;48.822;7.966;2023-02-20T03:33:30;19.90;;;19.00;;
18021;SDS011;9136;48.822;7.966;2023-02-20T03:36:40;19.33;;;18.47;;
18021;SDS011;9136;48.822;7.966;2023-02-20T03:39:50;22.73;;;21.73;;
18021;SDS011;9136;48.822;7.966;2023-02-20T03:43:01;21.33;;;20.33;;
18021;SDS011;9136;48.822;7.966;2023-02-20T03:46:10;20.03;;;19.17;;
18021;SDS011;9136;48.822;7.966;2023-02-20T03:49:04;19.30;;;18.50;;
18021;SDS011;9136;48.822;7.966;2023-02-20T03:51:54;19.90;;;19.00;;
18021;SDS011;9136;48.822;7.966;2023-02-20T03:54:45;20.67;;;19.77;;
18021;SDS011;9136;48.822;7.966;2023-02-20T03:57:35;19.73;;;18.83;;
18021;SDS011;9136;48.822;7.966;2023-02-20T04:00:27;20.33;;;19.43;;
18021;SDS011;9136;48.822;7.966;2023-02-20T04:03:18;17.40;;;16.57;;
18021;SDS011;9136;48.822;7.966;2023-02-20T04:06:09;18.40;;;17.60;;
18021;SDS011;9136;48.822;7.966;2023-02-20T04:08:59;16.93;;;16.23;;
18021;SDS011;9136;48.822;7.966;2023-02-20T04:11:51;19.30;;;18.50;;
18021;SDS011;9136;48.822;7.966;2023-02-20T04:14:44;20.27;;;19.27;;
18021;SDS011;9136;48.822;7.966;2023-02-20T04:17:38;18.43;;;17.60;;
18021;SDS011;9136;48.822;7.966;2023-02-20T04:20:28;20.60;;;19.03;;
18021;SDS011;9136;48.822;7.966;2023-02-20T04:23:17;19.37;;;18.37;;
18021;SDS011;9136;48.822;7.966;2023-02-20T04:26:07;19.53;;;18.63;;
18021;SDS011;9136;48.822;7.966;2023-02-20T04:28:58;17.03;;;16.20;;
18021;SDS011;9136;48.822;7.966;2023-02-20T04:31:46;17.33;;;16.60;;
18021;SDS011;9136;48.822;7.966;2023-02-20T04:34:35;19.83;;;18.93;;
18021;SDS011;9136;48.822;7.966;2023-02-20T04:37:23;19.17;;;18.33;;
18021;SDS011;9136;48.822;7.966;2023-02-20T04:40:12;20.87;;;19.90;;
18021;SDS011;9136;48.822;7.966;2023-02-20T04:43:02;19.60;;;18.70;;
18021;SDS011;9136;48.822;7.966;2023-02-20T04:45:50;18.07;;;17.23;;
18021;SDS011;9136;48.822;7.966;2023-02-20T04:48:38;20.00;;;19.10;;
18021;SDS011;9136;48.822;7.966;2023-02-20T04:51:27;20.23;;;19.23;;
18021;SDS011;9136;48.822;7.966;2023-02-20T04:54:15;19.33;;;18.43;;
18021;SDS011;9136;48.822;7.966;2023-02-20T04:57:03;17.07;;;16.30;;
18021;SDS011;9136;48.822;7.966;2023-02-20T04:59:51;18.50;;;17.60;;
18021;SDS011;9136;48.822;7.966;2023-02-20T05:02:39;18.23;;;17.43;;
18021;SDS011;9136;48.822;7.966;2023-02-20T05:05:27;19.97;;;19.07;;
18021;SDS011;9136;48.822;7.966;2023-02-20T05:08:19;19.20;;;18.37;;
18021;SDS011;9136;48.822;7.966;2023-02-20T05:11:07;17.63;;;16.83;;
18021;SDS011;9136;48.822;7.966;2023-02-20T05:13:55;20.20;;;19.20;;
18021;SDS011;9136;48.822;7.966;2023-02-20T05:16:43;20.13;;;19.23;;
18021;SDS011;9136;48.822;7.966;2023-02-20T05:19:31;19.23;;;18.43;;
18021;SDS011;9136;48.822;7.966;2023-02-20T05:22:19;20.07;;;19.17;;
18021;SDS011;9136;48.822;7.966;2023-02-20T05:25:08;21.43;;;20.50;;
18021;SDS011;9136;48.822;7.966;2023-02-20T05:27:55;18.23;;;17.23;;
18021;SDS011;9136;48.822;7.966;2023-02-20T05:30:44;18.47;;;17.67;;
18021;SDS011;9136;48.822;7.966;2023-02-20T05:33:32;18.00;;;17.10;;
18021;SDS011;9136;48.822;7.966;2023-02-20T05:36:20;20.23;;;19.33;;
18021;SDS011;9136;48.822;7.966;2023-02-20T05:39:08;20.40;;;19.50;;
18021;SDS011;9136;48.822;7.966;2023-02-20T05:41:57;19.57;;;18.67;;
18021;SDS011;9136;48.822;7.966;2023-02-20T05:44:45;19.80;;;18.70;;
18021;SDS011;9136;48.822;7.966;2023-02-20T05:47:35;19.57;;;18.67;;
18021;SDS011;9136;48.822;7.966;2023-02-20T05:50:23;20.13;;;19.13;;
18021;SDS011;9136;48.822;7.966;2023-02-20T05:53:11;20.67;;;19.77;;
18021;SDS011;9136;48.822;7.966;2023-02-20T05:55:59;19.93;;;19.03;;
18021;SDS011;9136;48.822;7.966;2023-02-20T05:58:48;19.43;;;18.50;;
18021;SDS011;9136;48.822;7.966;2023-02-20T06:01:36;21.03;;;20.03;;
18021;SDS011;9136;48.822;7.966;2023-02-20T06:04:24;22.53;;;21.53;;
18021;SDS011;9136;48.822;7.966;2023-02-20T06:07:13;21.70;;;20.73;;
18021;SDS011;9136;48.822;7.966;2023-02-20T06:10:01;18.67;;;17.87;;
18021;SDS011;9136;48.822;7.966;2023-02-20T06:12:49;22.77;;;21.77;;
18021;SDS011;9136;48.822;7.966;2023-02-20T06:15:38;21.30;;;20.30;;
18021;SDS011;9136;48.822;7.966;2023-02-20T06:18:26;21.13;;;20.23;;
18021;SDS011;9136;48.822;7.966;2023-02-20T06:21:13;17.73;;;16.93;;
18021;SDS011;9136;48.822;7.966;2023-02-20T06:24:01;21.93;;;20.93;;
18021;SDS011;9136;48.822;7.966;2023-02-20T06:26:49;19.63;;;18.73;;
18021;SDS011;9136;48.822;7.966;2023-02-20T06:29:38;22.47;;;21.43;;
18021;SDS011;9136;48.822;7.966;2023-02-20T06:32:27;20.60;;;19.70;;
18021;SDS011;9136;48.822;7.966;2023-02-20T06:35:15;20.43;;;19.50;;
18021;SDS011;9136;48.822;7.966;2023-02-20T06:38:03;21.93;;;20.93;;
18021;SDS011;9136;48.822;7.966;2023-02-20T06:40:51;19.20;;;18.37;;
18021;SDS011;9136;48.822;7.966;2023-02-20T06:43:39;22.80;;;21.80;;
18021;SDS011;9136;48.822;7.966;2023-02-20T06:46:26;20.17;;;19.27;;
18021;SDS011;9136;48.822;7.966;2023-02-20T06:49:17;20.37;;;19.43;;
18021;SDS011;9136;48.822;7.966;2023-02-20T06:52:05;18.40;;;17.50;;
18021;SDS011;9136;48.822;7.966;2023-02-20T06:54:54;22.17;;;21.17;;
18021;SDS011;9136;48.822;7.966;2023-02-20T06:57:41;18.70;;;17.80;;
18021;SDS011;9136;48.822;7.966;2023-02-20T07:00:29;21.73;;;20.73;;
18021;SDS011;9136;48.822;7.966;2023-02-20T07:03:17;17.63;;;16.83;;
18021;SDS011;9136;48.822;7.966;2023-02-20T07:06:06;20.13;;;19.13;;
18021;SDS011;9136;48.822;7.966;2023-02-20T07:08:54;19.50;;;18.63;;
18021;SDS011;9136;48.822;7.966;2023-02-20T07:11:42;21.77;;;20.77;;
18021;SDS011;9136;48.822;7.966;2023-02-20T07:14:30;19.87;;;19.00;;
18021;SDS011;9136;48.822;7.966;2023-02-20T07:17:18;18.50;;;17.70;;
18021;SDS011;9136;48.822;7.966;2023-02-20T07:20:06;21.20;;;20.07;;
18021;SDS011;9136;48.822;7.966;2023-02-20T07:22:56;21.17;;;20.07;;
18021;SDS011;9136;48.822;7.966;2023-02-20T07:25:44;19.47;;;18.60;;
18021;SDS011;9136;48.822;7.966;2023-02-20T07:28:33;19.37;;;18.57;;
18021;SDS011;9136;48.822;7.966;2023-02-20T07:31:21;21.50;;;20.57;;
18021;SDS011;9136;48.822;7.966;2023-02-20T07:34:09;19.17;;;18.17;;
18021;SDS011;9136;48.822;7.966;2023-02-20T07:36:58;22.10;;;21.10;;
18021;SDS011;9136;48.822;7.966;2023-02-20T07:39:50;20.77;;;19.87;;
18021;SDS011;9136;48.822;7.966;2023-02-20T07:42:53;19.83;;;18.93;;
18021;SDS011;9136;48.822;7.966;2023-02-20T07:45:41;22.70;;;21.50;;
18021;SDS011;9136;48.822;7.966;2023-02-20T07:48:29;22.33;;;21.33;;
18021;SDS011;9136;48.822;7.966;2023-02-20T07:51:17;20.87;;;19.97;;
18021;SDS011;9136;48.822;7.966;2023-02-20T07:54:06;19.77;;;18.87;;
18021;SDS011;9136;48.822;7.966;2023-02-20T07:56:55;21.50;;;20.60;;
18021;SDS011;9136;48.822;7.966;2023-02-20T07:59:43;20.10;;;19.20;;
18021;SDS011;9136;48.822;7.966;2023-02-20T08:02:31;20.23;;;19.33;;
18021;SDS011;9136;48.822;7.966;2023-02-20T08:05:19;20.73;;;19.83;;
18021;SDS011;9136;48.822;7.966;2023-02-20T08:08:07;22.20;;;21.20;;
18021;SDS011;9136;48.822;7.966;2023-02-20T08:10:55;20.47;;;19.30;;
18021;SDS011;9136;48.822;7.966;2023-02-20T08:13:45;19.30;;;18.40;;
18021;SDS011;9136;48.822;7.966;2023-02-20T08:16:32;19.60;;;18.70;;
18021;SDS011;9136;48.822;7.966;2023-02-20T08:19:20;19.53;;;18.70;;
18021;SDS011;9136;48.822;7.966;2023-02-20T08:22:09;20.03;;;19.13;;
18021;SDS011;9136;48.822;7.966;2023-02-20T08:24:57;21.30;;;20.23;;
18021;SDS011;9136;48.822;7.966;2023-02-20T08:27:45;20.17;;;19.27;;
18021;SDS011;9136;48.822;7.966;2023-02-20T08:30:37;19.77;;;18.77;;
18021;SDS011;9136;48.822;7.966;2023-02-20T08:33:25;17.03;;;16.23;;
18021;SDS011;9136;48.822;7.966;2023-02-20T08:36:13;20.97;;;19.97;;
18021;SDS011;9136;48.822;7.966;2023-02-20T08:39:03;16.53;;;15.73;;
18021;SDS011;9136;48.822;7.966;2023-02-20T08:41:51;19.10;;;18.13;;
18021;SDS011;9136;48.822;7.966;2023-02-20T08:44:41;17.47;;;16.67;;
18021;SDS011;9136;48.822;7.966;2023-02-20T08:47:31;19.80;;;18.90;;
18021;SDS011;9136;48.822;7.966;2023-02-20T08:50:19;19.83;;;18.93;;
18021;SDS011;9136;48.822;7.966;2023-02-20T08:53:07;19.07;;;18.07;;
18021;SDS011;9136;48.822;7.966;2023-02-20T08:55:55;19.17;;;18.33;;
18021;SDS011;9136;48.822;7.966;2023-02-20T08:58:43;20.83;;;19.77;;
18021;SDS011;9136;48.822;7.966;2023-02-20T09:01:31;22.00;;;21.00;;
18021;SDS011;9136;48.822;7.966;2023-02-20T09:04:20;19.33;;;18.43;;
18021;SDS011;9136;48.822;7.966;2023-02-20T09:07:09;19.57;;;18.23;;
18021;SDS011;9136;48.822;7.966;2023-02-20T09:09:57;20.07;;;19.03;;
18021;SDS011;9136;48.822;7.966;2023-02-20T09:12:45;20.60;;;19.67;;
18021;SDS011;9136;48.822;7.966;2023-02-20T09:15:33;17.73;;;16.93;;
18021;SDS011;9136;48.822;7.966;2023-02-20T09:18:24;20.33;;;19.33;;
18021;SDS011;9136;48.822;7.966;2023-02-20T09:21:15;18.23;;;17.43;;
18021;SDS011;9136;48.822;7.966;2023-02-20T09:24:05;19.13;;;18.23;;
18021;SDS011;9136;48.822;7.966;2023-02-20T09:26:54;17.87;;;17.07;;
18021;SDS011;9136;48.822;7.966;2023-02-20T09:29:42;20.13;;;19.13;;
18021;SDS011;9136;48.822;7.966;2023-02-20T09:32:30;21.80;;;20.70;;
18021;SDS011;9136;48.822;7.966;2023-02-20T09:35:19;19.90;;;19.00;;
18021;SDS011;9136;48.822;7.966;2023-02-20T09:38:10;19.00;;;18.10;;
18021;SDS011;9136;48.822;7.966;2023-02-20T09:40:58;17.30;;;16.60;;
18021;SDS011;9136;48.822;7.966;2023-02-20T09:43:48;19.97;;;18.97;;
18021;SDS011;9136;48.822;7.966;2023-02-20T09:46:43;18.10;;;17.30;;
18021;SDS011;9136;48.822;7.966;2023-02-20T09:49:32;18.13;;;17.33;;
18021;SDS011;9136;48.822;7.966;2023-02-20T09:52:23;18.70;;;17.80;;
18021;SDS011;9136;48.822;7.966;2023-02-20T09:55:13;18.47;;;17.57;;
18021;SDS011;9136;48.822;7.966;2023-02-20T09:58:05;16.07;;;15.33;;
18021;SDS011;9136;48.822;7.966;2023-02-20T10:01:07;16.80;;;15.93;;
18021;SDS011;9136;48.822;7.966;2023-02-20T10:03:58;18.00;;;16.93;;
18021;SDS011;9136;48.822;7.966;2023-02-20T10:06:49;20.80;;;19.90;;
18021;SDS011;9136;48.822;7.966;2023-02-20T10:09:39;18.80;;;17.90;;
18021;SDS011;9136;48.822;7.966;2023-02-20T10:12:31;18.77;;;17.97;;
18021;SDS011;9136;48.822;7.966;2023-02-20T10:15:25;18.30;;;17.50;;
18021;SDS011;9136;48.822;7.966;2023-02-20T10:18:23;17.60;;;16.80;;
18021;SDS011;9136;48.822;7.966;2023-02-20T10:21:22;16.53;;;15.77;;
18021;SDS011;9136;48.822;7.966;2023-02-20T10:24:30;16.20;;;15.50;;
18021;SDS011;9136;48.822;7.966;2023-02-20T10:27:35;18.10;;;16.93;;
18021;SDS011;9136;48.822;7.966;2023-02-20T10:30:30;18.00;;;17.20;;
18021;SDS011;9136;48.822;7.966;2023-02-20T10:33:23;15.63;;;14.93;;
18021;SDS011;9136;48.822;7.966;2023-02-20T10:36:17;16.40;;;15.60;;
18021;SDS011;9136;48.822;7.966;2023-02-20T10:39:10;19.53;;;18.63;;
18021;SDS011;9136;48.822;7.966;2023-02-20T10:42:02;18.40;;;17.57;;
18021;SDS011;9136;48.822;7.966;2023-02-20T10:45:00;16.63;;;15.93;;
18021;SDS011;9136;48.822;7.966;2023-02-20T10:47:56;18.77;;;17.67;;
18021;SDS011;9136;48.822;7.966;2023-02-20T10:50:52;15.77;;;15.07;;
18021;SDS011;9136;48.822;7.966;2023-02-20T10:53:52;17.20;;;16.30;;
18021;SDS011;9136;48.822;7.966;2023-02-20T10:56:45;16.87;;;16.07;;
18021;SDS011;9136;48.822;7.966;2023-02-20T10:59:41;15.73;;;14.93;;
18021;SDS011;9136;48.822;7.966;2023-02-20T11:02:36;18.40;;;17.50;;
18021;SDS011;9136;48.822;7.966;2023-02-20T11:05:28;16.07;;;15.37;;
18021;SDS011;9136;48.822;7.966;2023-02-20T11:08:38;15.27;;;14.53;;
18021;SDS011;9136;48.822;7.966;2023-02-20T11:11:30;14.73;;;14.00;;
18021;SDS011;9136;48.822;7.966;2023-02-20T11:14:23;13.70;;;13.10;;
18021;SDS011;9136;48.822;7.966;2023-02-20T11:17:17;17.50;;;16.40;;
18021;SDS011;9136;48.822;7.966;2023-02-20T11:23:39;14.77;;;14.07;;
18021;SDS011;9136;48.822;7.966;2023-02-20T11:26:30;14.97;;;14.27;;
18021;SDS011;9136;48.822;7.966;2023-02-20T11:29:19;15.80;;;15.03;;
18021;SDS011;9136;48.822;7.966;2023-02-20T11:35:22;12.87;;;12.13;;
18021;SDS011;9136;48.822;7.966;2023-02-20T11:38:31;13.73;;;12.93;;
18021;SDS011;9136;48.822;7.966;2023-02-20T11:41:38;15.20;;;14.43;;
18021;SDS011;9136;48.822;7.966;2023-02-20T11:44:25;13.30;;;12.70;;
18021;SDS011;9136;48.822;7.966;2023-02-20T11:47:21;13.90;;;13.20;;
18021;SDS011;9136;48.822;7.966;2023-02-20T11:50:13;13.90;;;13.10;;
18021;SDS011;9136;48.822;7.966;2023-02-20T11:53:03;13.43;;;12.73;;
18021;SDS011;9136;48.822;7.966;2023-02-20T11:56:05;14.13;;;13.53;;
18021;SDS011;9136;48.822;7.966;2023-02-20T11:59:03;13.80;;;13.10;;
18021;SDS011;9136;48.822;7.966;2023-02-20T12:05:20;14.80;;;14.10;;
18021;SDS011;9136;48.822;7.966;2023-02-20T12:11:26;13.47;;;12.83;;
18021;SDS011;9136;48.822;7.966;2023-02-20T12:14:16;13.48;;;12.63;;
18021;SDS011;9136;48.822;7.966;2023-02-20T12:17:07;13.48;;;12.88;;
18021;SDS011;9136;48.822;7.966;2023-02-20T12:20:06;14.20;;;13.57;;
18021;SDS011;9136;48.822;7.966;2023-02-20T12:23:00;13.75;;;13.15;;
18021;SDS011;9136;48.822;7.966;2023-02-20T12:26:02;14.13;;;12.90;;
18021;SDS011;9136;48.822;7.966;2023-02-20T12:29:05;12.68;;;12.15;;
18021;SDS011;9136;48.822;7.966;2023-02-20T12:32:11;14.20;;;13.50;;
18021;SDS011;9136;48.822;7.966;2023-02-20T12:38:25;13.32;;;12.43;;
18021;SDS011;9136;48.822;7.966;2023-02-20T12:41:33;13.82;;;13.13;;
18021;SDS011;9136;48.822;7.966;2023-02-20T12:44:47;14.32;;;13.57;;
18021;SDS011;9136;48.822;7.966;2023-02-20T12:47:54;13.90;;;13.20;;
18021;SDS011;9136;48.822;7.966;2023-02-20T12:51:05;12.73;;;12.15;;
18021;SDS011;9136;48.822;7.966;2023-02-20T12:54:18;13.32;;;12.55;;
18021;SDS011;9136;48.822;7.966;2023-02-20T12:57:14;13.80;;;13.18;;
18021;SDS011;9136;48.822;7.966;2023-02-20T13:00:13;13.57;;;12.95;;
18021;SDS011;9136;48.822;7.966;2023-02-20T13:03:13;13.25;;;12.55;;
18021;SDS011;9136;48.822;7.966;2023-02-20T13:06:05;13.65;;;13.05;;
18021;SDS011;9136;48.822;7.966;2023-02-20T13:08:56;12.23;;;11.63;;
18021;SDS011;9136;48.822;7.966;2023-02-20T13:11:51;15.05;;;14.25;;
18021;SDS011;9136;48.822;7.966;2023-02-20T13:14:53;14.90;;;14.05;;
18021;SDS011;9136;48.822;7.966;2023-02-20T13:17:50;14.07;;;13.38;;
18021;SDS011;9136;48.822;7.966;2023-02-20T13:20:43;12.93;;;12.32;;
18021;SDS011;9136;48.822;7.966;2023-02-20T13:23:36;13.52;;;12.90;;
18021;SDS011;9136;48.822;7.966;2023-02-20T13:26:45;14.57;;;13.88;;
18021;SDS011;9136;48.822;7.966;2023-02-20T13:29:35;15.07;;;14.38;;
18021;SDS011;9136;48.822;7.966;2023-02-20T13:32:26;14.27;;;13.45;;
18021;SDS011;9136;48.822;7.966;2023-02-20T13:35:31;14.45;;;13.75;;
18021;SDS011;9136;48.822;7.966;2023-02-20T13:38:23;13.50;;;12.80;;
18021;SDS011;9136;48.822;7.966;2023-02-20T13:41:11;13.52;;;12.93;;
18021;SDS011;9136;48.822;7.966;2023-02-20T13:44:08;13.80;;;13.20;;
18021;SDS011;9136;48.822;7.966;2023-02-20T13:47:32;14.90;;;14.20;;
18021;SDS011;9136;48.822;7.966;2023-02-20T13:50:27;13.20;;;12.60;;
18021;SDS011;9136;48.822;7.966;2023-02-20T13:53:18;12.50;;;12.00;;
18021;SDS011;9136;48.822;7.966;2023-02-20T13:56:10;14.60;;;13.90;;
18021;SDS011;9136;48.822;7.966;2023-02-20T13:59:01;14.07;;;13.47;;
18021;SDS011;9136;48.822;7.966;2023-02-20T14:01:54;14.33;;;13.73;;
18021;SDS011;9136;48.822;7.966;2023-02-20T14:04:51;13.87;;;13.23;;
18021;SDS011;9136;48.822;7.966;2023-02-20T14:07:43;14.90;;;14.20;;
18021;SDS011;9136;48.822;7.966;2023-02-20T14:10:33;14.73;;;13.93;;
18021;SDS011;9136;48.822;7.966;2023-02-20T14:13:22;14.23;;;13.63;;
18021;SDS011;9136;48.822;7.966;2023-02-20T14:16:25;14.57;;;13.87;;
18021;SDS011;9136;48.822;7.966;2023-02-20T14:19:18;14.33;;;13.63;;
18021;SDS011;9136;48.822;7.966;2023-02-20T14:22:19;14.10;;;13.50;;
18021;SDS011;9136;48.822;7.966;2023-02-20T14:28:18;15.13;;;14.43;;
18021;SDS011;9136;48.822;7.966;2023-02-20T14:31:16;13.93;;;13.33;;
18021;SDS011;9136;48.822;7.966;2023-02-20T14:34:07;12.87;;;12.30;;
18021;SDS011;9136;48.822;7.966;2023-02-20T14:37:01;13.70;;;13.10;;
18021;SDS011;9136;48.822;7.966;2023-02-20T14:39:58;13.73;;;13.13;;
18021;SDS011;9136;48.822;7.966;2023-02-20T14:42:54;14.13;;;13.53;;
18021;SDS011;9136;48.822;7.966;2023-02-20T14:45:57;12.87;;;12.07;;
18021;SDS011;9136;48.822;7.966;2023-02-20T14:48:47;12.87;;;12.30;;
18021;SDS011;9136;48.822;7.966;2023-02-20T14:51:35;12.20;;;11.70;;
18021;SDS011;9136;48.822;7.966;2023-02-20T14:54:25;13.37;;;12.77;;
18021;SDS011;9136;48.822;7.966;2023-02-20T14:57:15;13.20;;;12.60;;
18021;SDS011;9136;48.822;7.966;2023-02-20T15:00:06;13.60;;;13.00;;
18021;SDS011;9136;48.822;7.966;2023-02-20T15:02:56;13.10;;;12.50;;
18021;SDS011;9136;48.822;7.966;2023-02-20T15:05:44;14.30;;;13.60;;
18021;SDS011;9136;48.822;7.966;2023-02-20T15:08:33;13.80;;;13.10;;
18021;SDS011;9136;48.822;7.966;2023-02-20T15:11:24;13.27;;;12.53;;
18021;SDS011;9136;48.822;7.966;2023-02-20T15:14:17;13.63;;;13.03;;
18021;SDS011;9136;48.822;7.966;2023-02-20T15:17:13;14.77;;;14.17;;
18021;SDS011;9136;48.822;7.966;2023-02-20T15:20:18;13.13;;;12.53;;
18021;SDS011;9136;48.822;7.966;2023-02-20T15:23:22;13.97;;;13.27;;
18021;SDS011;9136;48.822;7.966;2023-02-20T15:26:29;13.73;;;13.13;;
18021;SDS011;9136;48.822;7.966;2023-02-20T15:29:19;13.77;;;13.07;;
18021;SDS011;9136;48.822;7.966;2023-02-20T15:32:16;13.57;;;12.97;;
18021;SDS011;9136;48.822;7.966;2023-02-20T15:35:11;14.87;;;14.17;;
18021;SDS011;9136;48.822;7.966;2023-02-20T15:38:02;14.10;;;13.30;;
18021;SDS011;9136;48.822;7.966;2023-02-20T15:40:54;13.60;;;13.00;;
18021;SDS011;9136;48.822;7.966;2023-02-20T15:43:45;14.07;;;13.47;;
18021;SDS011;9136;48.822;7.966;2023-02-20T15:46:32;14.83;;;14.23;;
18021;SDS011;9136;48.822;7.966;2023-02-20T15:49:20;13.53;;;12.93;;
18021;SDS011;9136;48.822;7.966;2023-02-20T15:52:09;16.23;;;15.00;;
18021;SDS011;9136;48.822;7.966;2023-02-20T15:55:01;14.63;;;13.97;;
18021;SDS011;9136;48.822;7.966;2023-02-20T15:57:50;14.70;;;14.00;;
18021;SDS011;9136;48.822;7.966;2023-02-20T16:00:43;12.37;;;11.83;;
18021;SDS011;9136;48.822;7.966;2023-02-20T16:03:31;12.93;;;12.33;;
18021;SDS011;9136;48.822;7.966;2023-02-20T16:06:20;12.30;;;11.80;;
18021;SDS011;9136;48.822;7.966;2023-02-20T16:09:08;15.10;;;14.40;;
18021;SDS011;9136;48.822;7.966;2023-02-20T16:11:56;13.33;;;12.73;;
18021;SDS011;9136;48.822;7.966;2023-02-20T16:14:44;13.53;;;12.87;;
18021;SDS011;9136;48.822;7.966;2023-02-20T16:17:34;15.57;;;14.87;;
18021;SDS011;9136;48.822;7.966;2023-02-20T16:20:24;14.83;;;14.17;;
18021;SDS011;9136;48.822;7.966;2023-02-20T16:23:13;14.17;;;13.57;;
18021;SDS011;9136;48.822;7.966;2023-02-20T16:26:01;13.67;;;13.07;;
18021;SDS011;9136;48.822;7.966;2023-02-20T16:28:50;13.70;;;13.10;;
18021;SDS011;9136;48.822;7.966;2023-02-20T16:35:12;13.63;;;13.03;;
18021;SDS011;9136;48.822;7.966;2023-02-20T16:38:00;15.13;;;14.43;;
18021;SDS011;9136;48.822;7.966;2023-02-20T16:40:48;14.00;;;13.40;;
18021;SDS011;9136;48.822;7.966;2023-02-20T16:43:39;13.97;;;13.37;;
18021;SDS011;9136;48.822;7.966;2023-02-20T16:46:27;13.80;;;13.20;;
18021;SDS011;9136;48.822;7.966;2023-02-20T16:49:15;14.73;;;14.10;;
18021;SDS011;9136;48.822;7.966;2023-02-20T16:52:05;14.23;;;13.63;;
18021;SDS011;9136;48.822;7.966;2023-02-20T16:55:03;15.67;;;14.87;;
18021;SDS011;9136;48.822;7.966;2023-02-20T16:57:52;14.53;;;13.90;;
18021;SDS011;9136;48.822;7.966;2023-02-20T17:00:41;13.97;;;13.37;;
18021;SDS011;9136;48.822;7.966;2023-02-20T17:03:29;15.60;;;14.90;;
18021;SDS011;9136;48.822;7.966;2023-02-20T17:06:17;14.67;;;14.07;;
18021;SDS011;9136;48.822;7.966;2023-02-20T17:09:08;14.63;;;14.03;;
18021;SDS011;9136;48.822;7.966;2023-02-20T17:11:56;15.47;;;14.73;;
18021;SDS011;9136;48.822;7.966;2023-02-20T17:14:44;15.57;;;14.77;;
18021;SDS011;9136;48.822;7.966;2023-02-20T17:17:33;16.47;;;15.70;;
18021;SDS011;9136;48.822;7.966;2023-02-20T17:20:22;14.60;;;14.00;;
18021;SDS011;9136;48.822;7.966;2023-02-20T17:23:11;14.03;;;13.43;;
18021;SDS011;9136;48.822;7.966;2023-02-20T17:26:00;15.83;;;15.03;;
18021;SDS011;9136;48.822;7.966;2023-02-20T17:28:48;15.57;;;14.87;;
18021;SDS011;9136;48.822;7.966;2023-02-20T17:31:36;15.70;;;15.00;;
18021;SDS011;9136;48.822;7.966;2023-02-20T17:34:25;16.80;;;15.93;;